createdAt,value
2022-10-07T00:01:21.919Z,11.39
2022-10-07T00:04:07.299Z,11.35
2022-10-07T00:06:52.715Z,11.33
2022-10-07T00:09:37.965Z,11.28
2022-10-07T00:12:23.201Z,11.25
2022-10-07T00:15:08.946Z,11.23
2022-10-07T00:17:54.034Z,11.25
2022-10-07T00:20:40.722Z,11.23
2022-10-07T00:23:25.923Z,11.20
2022-10-07T00:26:14.584Z,11.20
2022-10-07T00:29:00.567Z,11.21
2022-10-07T00:31:45.691Z,11.20
2022-10-07T00:34:31.108Z,11.20
2022-10-07T00:37:16.649Z,11.19
2022-10-07T00:40:02.330Z,11.16
2022-10-07T00:42:47.517Z,11.13
2022-10-07T00:45:35.859Z,11.13
2022-10-07T00:48:26.443Z,11.12
2022-10-07T00:51:12.193Z,11.09
2022-10-07T00:53:57.697Z,11.07
2022-10-07T00:56:45.250Z,11.01
2022-10-07T00:59:30.416Z,10.99
2022-10-07T01:02:15.873Z,10.98
2022-10-07T01:05:04.820Z,10.97
2022-10-07T01:07:55.972Z,10.93
2022-10-07T01:10:47.762Z,10.90
2022-10-07T01:13:42.710Z,10.83
2022-10-07T01:16:48.782Z,10.81
2022-10-07T01:19:46.803Z,10.81
2022-10-07T01:22:41.602Z,10.79
2022-10-07T01:25:42.076Z,10.76
2022-10-07T01:28:53.661Z,10.73
2022-10-07T01:31:47.657Z,10.70
2022-10-07T01:34:35.689Z,10.68
2022-10-07T01:37:24.521Z,10.67
2022-10-07T01:40:17.310Z,10.64
2022-10-07T01:43:03.013Z,10.64
2022-10-07T01:45:50.974Z,10.62
2022-10-07T01:48:36.627Z,10.56
2022-10-07T01:51:25.992Z,10.56
2022-10-07T01:54:29.763Z,10.56
2022-10-07T01:57:34.365Z,10.53
2022-10-07T02:00:19.886Z,10.51
2022-10-07T02:03:32.867Z,10.49
2022-10-07T02:06:35.087Z,10.49
2022-10-07T02:09:35.442Z,10.44
2022-10-07T02:12:37.279Z,10.44
2022-10-07T02:15:28.027Z,10.43
2022-10-07T02:18:16.940Z,10.40
2022-10-07T02:21:06.870Z,10.39
2022-10-07T02:23:55.430Z,10.36
2022-10-07T02:26:43.224Z,10.33
2022-10-07T02:29:34.146Z,10.31
2022-10-07T02:32:23.519Z,10.30
2022-10-07T02:35:18.887Z,10.28
2022-10-07T02:38:11.584Z,10.30
2022-10-07T02:41:34.252Z,10.26
2022-10-07T02:44:34.116Z,10.27
2022-10-07T02:47:33.972Z,10.25
2022-10-07T02:50:25.336Z,10.20
2022-10-07T02:53:13.609Z,10.17
2022-10-07T02:56:01.235Z,10.14
2022-10-07T02:58:48.449Z,10.13
2022-10-07T03:01:41.348Z,10.09
2022-10-07T03:04:27.079Z,10.05
2022-10-07T03:07:13.866Z,10.01
2022-10-07T03:09:59.500Z,9.97
2022-10-07T03:12:45.699Z,9.94
2022-10-07T03:15:32.866Z,9.93
2022-10-07T03:18:29.039Z,9.93
2022-10-07T03:21:24.107Z,9.91
2022-10-07T03:24:12.112Z,9.90
2022-10-07T03:27:02.888Z,9.90
2022-10-07T03:29:48.855Z,9.90
2022-10-07T03:32:34.707Z,9.88
2022-10-07T03:35:20.088Z,9.88
2022-10-07T03:38:08.289Z,9.88
2022-10-07T03:40:54.300Z,9.88
2022-10-07T03:43:39.426Z,9.88
2022-10-07T03:46:25.980Z,9.87
2022-10-07T03:49:12.259Z,9.87
2022-10-07T03:52:00.092Z,9.86
2022-10-07T03:54:45.833Z,9.87
2022-10-07T03:57:50.238Z,9.87
2022-10-07T04:00:36.239Z,9.85
2022-10-07T04:03:22.062Z,9.86
2022-10-07T04:06:08.381Z,9.87
2022-10-07T04:08:55.261Z,9.88
2022-10-07T04:11:41.664Z,9.88
2022-10-07T04:14:27.598Z,9.84
2022-10-07T04:17:13.402Z,9.81
2022-10-07T04:19:59.430Z,9.78
2022-10-07T04:22:45.542Z,9.77
2022-10-07T04:25:33.789Z,9.76
2022-10-07T04:28:26.242Z,9.74
2022-10-07T04:31:21.279Z,9.71
2022-10-07T04:34:12.653Z,9.69
2022-10-07T04:37:01.122Z,9.67
2022-10-07T04:39:59.999Z,9.64
2022-10-07T04:43:05.798Z,9.58
2022-10-07T04:45:54.379Z,9.56
2022-10-07T04:48:44.037Z,9.51
2022-10-07T04:51:31.055Z,9.45
2022-10-07T04:54:17.634Z,9.43
2022-10-07T04:57:13.405Z,9.42
2022-10-07T04:59:59.535Z,9.40
2022-10-07T05:02:50.188Z,9.37
2022-10-07T05:05:44.297Z,9.37
2022-10-07T05:08:31.639Z,9.35
2022-10-07T05:11:18.085Z,9.29
2022-10-07T05:14:09.933Z,9.28
2022-10-07T05:16:55.878Z,9.27
2022-10-07T05:19:44.794Z,9.27
2022-10-07T05:22:31.523Z,9.26
2022-10-07T05:25:17.583Z,9.24
2022-10-07T05:28:02.657Z,9.23
2022-10-07T05:30:48.055Z,9.22
2022-10-07T05:33:33.863Z,9.22
2022-10-07T05:36:23.089Z,9.24
2022-10-07T05:39:10.821Z,9.24
2022-10-07T05:42:22.012Z,9.22
2022-10-07T05:45:14.128Z,9.24
2022-10-07T05:48:00.534Z,9.27
2022-10-07T05:50:47.358Z,9.30
2022-10-07T05:53:32.829Z,9.32
2022-10-07T05:56:22.779Z,9.34
2022-10-07T05:59:10.430Z,9.37
2022-10-07T06:02:00.010Z,9.39
2022-10-07T06:04:47.446Z,9.41
2022-10-07T06:07:32.645Z,9.42
2022-10-07T06:10:37.466Z,9.45
2022-10-07T06:13:23.964Z,9.49
2022-10-07T06:16:10.026Z,9.51
2022-10-07T06:18:56.198Z,9.51
2022-10-07T06:21:43.749Z,9.54
2022-10-07T06:24:29.123Z,9.60
2022-10-07T06:27:14.767Z,9.64
2022-10-07T06:30:01.132Z,9.74
2022-10-07T06:32:46.686Z,9.87
2022-10-07T06:35:32.265Z,9.94
2022-10-07T06:38:17.807Z,10.02
2022-10-07T06:41:05.640Z,10.23
2022-10-07T06:43:57.177Z,10.58
2022-10-07T06:46:44.258Z,10.69
2022-10-07T06:49:31.254Z,10.89
2022-10-07T06:52:17.204Z,11.29
2022-10-07T06:55:02.977Z,11.57
2022-10-07T06:57:50.650Z,11.64
2022-10-07T07:00:38.343Z,11.58
2022-10-07T07:03:24.535Z,11.50
2022-10-07T07:06:11.182Z,11.44
2022-10-07T07:09:00.111Z,11.40
2022-10-07T07:11:45.818Z,11.39
2022-10-07T07:14:39.757Z,11.45
2022-10-07T07:17:29.547Z,11.61
2022-10-07T07:20:15.923Z,11.83
2022-10-07T07:23:02.284Z,11.88
2022-10-07T07:25:47.465Z,11.87
2022-10-07T07:28:33.248Z,11.88
2022-10-07T07:31:18.842Z,11.85
2022-10-07T07:34:07.476Z,11.80
2022-10-07T07:36:53.419Z,11.86
2022-10-07T07:39:44.424Z,11.98
2022-10-07T07:42:32.837Z,12.10
2022-10-07T07:45:19.312Z,12.19
2022-10-07T07:48:05.054Z,12.28
2022-10-07T07:50:51.671Z,12.33
2022-10-07T07:53:37.740Z,12.39
2022-10-07T07:56:26.393Z,12.45
2022-10-07T07:59:12.154Z,12.59
2022-10-07T08:02:02.491Z,12.72
2022-10-07T08:04:48.067Z,12.82
2022-10-07T08:07:35.498Z,12.97
2022-10-07T08:10:22.575Z,13.12
2022-10-07T08:13:08.393Z,13.34
2022-10-07T08:16:02.039Z,13.43
2022-10-07T08:18:49.692Z,13.51
2022-10-07T08:21:34.971Z,13.62
2022-10-07T08:24:25.834Z,13.76
2022-10-07T08:27:11.834Z,13.93
2022-10-07T08:29:57.268Z,14.05
2022-10-07T08:32:43.027Z,14.15
2022-10-07T08:35:28.174Z,14.27
2022-10-07T08:38:15.368Z,14.41
2022-10-07T08:41:06.729Z,14.49
2022-10-07T08:43:52.596Z,14.55
2022-10-07T08:46:39.340Z,14.68
2022-10-07T08:49:45.667Z,14.84
2022-10-07T08:52:47.759Z,15.00
2022-10-07T08:55:48.450Z,15.13
2022-10-07T08:58:55.574Z,15.20
2022-10-07T09:01:55.925Z,15.27
2022-10-07T09:04:54.586Z,15.33
2022-10-07T09:07:48.702Z,15.68
2022-10-07T09:10:44.321Z,16.63
2022-10-07T09:13:35.653Z,16.99
2022-10-07T09:16:43.298Z,16.78
2022-10-07T09:19:50.181Z,16.61
2022-10-07T09:22:38.819Z,16.51
2022-10-07T09:25:29.549Z,16.48
2022-10-07T09:28:17.423Z,16.49
2022-10-07T09:31:03.232Z,16.51
2022-10-07T09:33:52.969Z,16.54
2022-10-07T09:37:21.398Z,16.63
2022-10-07T09:40:22.883Z,16.66
2022-10-07T09:43:13.950Z,16.64
2022-10-07T09:46:00.993Z,16.69
2022-10-07T09:48:52.832Z,16.71
2022-10-07T09:51:39.677Z,16.72
2022-10-07T09:54:26.385Z,16.78
2022-10-07T09:57:47.827Z,16.92
2022-10-07T10:00:43.197Z,17.01
2022-10-07T10:03:30.435Z,17.03
2022-10-07T10:06:21.746Z,17.11
2022-10-07T10:09:11.662Z,17.21
2022-10-07T10:12:26.495Z,17.33
2022-10-07T10:15:26.844Z,17.37
2022-10-07T10:18:40.880Z,17.40
2022-10-07T10:21:35.746Z,17.40
2022-10-07T10:24:41.315Z,17.49
2022-10-07T10:27:35.580Z,17.65
2022-10-07T10:30:22.622Z,17.67
2022-10-07T10:33:14.628Z,17.75
2022-10-07T10:36:21.486Z,17.88
2022-10-07T10:39:25.025Z,17.98
2022-10-07T10:42:14.273Z,17.99
2022-10-07T10:45:21.494Z,18.00
2022-10-07T10:48:29.377Z,18.07
2022-10-07T10:51:31.502Z,18.06
2022-10-07T10:54:33.042Z,18.04
2022-10-07T10:57:50.328Z,18.17
2022-10-07T11:00:44.744Z,18.23
2022-10-07T11:03:55.661Z,18.26
2022-10-07T11:06:46.626Z,18.22
2022-10-07T11:09:43.543Z,18.24
2022-10-07T11:12:42.237Z,18.32
2022-10-07T11:15:34.416Z,18.38
2022-10-07T11:18:45.613Z,18.37
2022-10-07T11:21:40.288Z,18.35
2022-10-07T11:24:37.459Z,18.36
2022-10-07T11:27:34.521Z,18.38
2022-10-07T11:30:23.236Z,18.39
2022-10-07T11:33:15.208Z,18.45
2022-10-07T11:36:11.218Z,18.50
2022-10-07T11:38:56.747Z,18.46
2022-10-07T11:41:52.878Z,18.53
2022-10-07T11:45:02.623Z,18.60
2022-10-07T11:47:54.171Z,18.45
2022-10-07T11:50:47.656Z,18.39
2022-10-07T11:53:37.389Z,18.44
2022-10-07T11:56:26.645Z,18.44
2022-10-07T11:59:47.912Z,18.42
2022-10-07T12:02:39.032Z,18.45
2022-10-07T12:05:51.768Z,18.42
2022-10-07T12:08:48.403Z,18.37
2022-10-07T12:11:38.680Z,18.36
2022-10-07T12:15:05.104Z,18.37
2022-10-07T12:18:19.454Z,18.44
2022-10-07T12:24:30.100Z,18.55
2022-10-07T12:27:24.841Z,18.51
2022-10-07T12:30:48.864Z,18.53
2022-10-07T12:33:37.283Z,18.42
2022-10-07T12:36:22.558Z,18.34
2022-10-07T12:39:11.674Z,18.34
2022-10-07T12:41:59.552Z,18.25
2022-10-07T12:45:01.355Z,18.26
2022-10-07T12:52:12.094Z,18.29
2022-10-07T12:55:10.831Z,18.29
2022-10-07T12:58:20.869Z,18.34
2022-10-07T13:01:23.529Z,18.25
2022-10-07T13:04:23.160Z,18.16
2022-10-07T13:07:20.971Z,18.05
2022-10-07T13:10:21.505Z,18.02
2022-10-07T13:13:29.477Z,17.93
2022-10-07T13:16:44.019Z,17.92
2022-10-07T13:19:54.946Z,17.92
2022-10-07T13:22:48.452Z,17.88
2022-10-07T13:25:33.901Z,17.86
2022-10-07T13:28:25.561Z,17.88
2022-10-07T13:31:21.964Z,17.92
2022-10-07T13:34:16.379Z,17.85
2022-10-07T13:37:02.118Z,17.81
2022-10-07T13:39:47.632Z,17.78
2022-10-07T13:42:33.192Z,17.76
2022-10-07T13:45:18.900Z,17.72
2022-10-07T13:48:08.798Z,17.66
2022-10-07T13:50:59.335Z,17.67
2022-10-07T13:53:44.437Z,17.65
2022-10-07T13:56:33.609Z,17.64
2022-10-07T13:59:20.502Z,17.59
2022-10-07T14:02:12.328Z,17.54
2022-10-07T14:05:05.878Z,17.52
2022-10-07T14:07:53.734Z,17.51
2022-10-07T14:11:09.628Z,17.48
2022-10-07T14:13:55.227Z,17.46
2022-10-07T14:16:40.895Z,17.42
2022-10-07T14:19:32.243Z,17.39
2022-10-07T14:22:27.257Z,17.36
2022-10-07T14:25:27.792Z,17.34
2022-10-07T14:28:40.265Z,17.33
2022-10-07T14:31:45.238Z,17.28
2022-10-07T14:35:01.524Z,17.20
2022-10-07T14:37:47.951Z,17.15
2022-10-07T14:40:33.090Z,17.10
2022-10-07T14:43:20.025Z,17.06
2022-10-07T14:46:10.077Z,17.01
2022-10-07T14:48:55.393Z,16.98
2022-10-07T14:51:44.023Z,16.96
2022-10-07T14:54:30.854Z,16.93
2022-10-07T14:57:16.223Z,16.92
2022-10-07T15:00:01.786Z,16.89
2022-10-07T15:02:50.399Z,16.88
2022-10-07T15:05:37.609Z,16.87
2022-10-07T15:08:23.702Z,16.85
2022-10-07T15:11:09.901Z,16.84
2022-10-07T15:13:55.724Z,16.83
2022-10-07T15:16:41.745Z,16.80
2022-10-07T15:19:26.737Z,16.76
2022-10-07T15:22:12.173Z,16.71
2022-10-07T15:24:57.709Z,16.67
2022-10-07T15:27:42.984Z,16.63
2022-10-07T15:30:29.501Z,16.60
2022-10-07T15:33:14.857Z,16.52
2022-10-07T15:36:00.726Z,16.44
2022-10-07T15:38:46.040Z,16.34
2022-10-07T15:41:35.296Z,16.27
2022-10-07T15:44:22.161Z,16.22
2022-10-07T15:47:07.271Z,16.17
2022-10-07T15:49:52.651Z,16.15
2022-10-07T15:52:38.178Z,16.11
2022-10-07T15:55:23.278Z,16.08
2022-10-07T15:58:08.625Z,16.03
2022-10-07T16:01:00.379Z,15.98
2022-10-07T16:03:48.760Z,15.95
2022-10-07T16:06:35.488Z,15.88
2022-10-07T16:09:22.012Z,15.85
2022-10-07T16:12:08.561Z,15.80
2022-10-07T16:14:53.879Z,15.75
2022-10-07T16:17:39.156Z,15.71
2022-10-07T16:20:39.354Z,15.66
2022-10-07T16:23:24.771Z,15.60
2022-10-07T16:26:13.304Z,15.57
2022-10-07T16:29:18.851Z,15.50
2022-10-07T16:32:04.922Z,15.47
2022-10-07T16:34:51.367Z,15.41
2022-10-07T16:37:36.829Z,15.35
2022-10-07T16:40:22.200Z,15.32
2022-10-07T16:43:07.478Z,15.29
2022-10-07T16:45:53.309Z,15.25
2022-10-07T16:48:41.213Z,15.20
2022-10-07T16:51:35.373Z,15.14
2022-10-07T16:54:21.513Z,15.09
2022-10-07T16:57:07.116Z,15.03
2022-10-07T16:59:55.563Z,14.98
2022-10-07T17:02:40.961Z,14.93
2022-10-07T17:05:26.256Z,14.90
2022-10-07T17:08:11.643Z,14.87
2022-10-07T17:10:56.812Z,14.84
2022-10-07T17:13:42.332Z,14.79
2022-10-07T17:16:32.559Z,14.75
2022-10-07T17:19:20.141Z,14.69
2022-10-07T17:22:06.379Z,14.65
2022-10-07T17:24:52.265Z,14.63
2022-10-07T17:27:37.756Z,14.57
2022-10-07T17:30:23.052Z,14.52
2022-10-07T17:33:08.410Z,14.46
2022-10-07T17:36:00.845Z,14.41
